• vieta
  • image
  • image
  • image
mod_vvisit_countermod_vvisit_countermod_vvisit_countermod_vvisit_countermod_vvisit_countermod_vvisit_counter
mod_vvisit_counterŠiandien169
mod_vvisit_counterVakar639
mod_vvisit_counterŠią savaitę2813
mod_vvisit_counterPraėjusią savaitę4355
mod_vvisit_counterŠį mėnesį15284
mod_vvisit_counterPraėjusį mėnesį21340
mod_vvisit_counterViso780674

Mes turime: 90 svečius, 1 bots online
Jūsų IP: 54.198.2.110
 , 
Šiandien: Lap 24, 2017
Oro uostas / Įmonė

Apie įmonę

 

Savivaldybės įmonė Šiaulių oro uostas.

2003 m. lapkričio mėn. Šiaulių miesto savivaldybės tarybos sprendimu įsteigta Savivaldybės įmonė Šiaulių oro uostas, kuriai LR Vyriausybės nutarimu suteikta teisė aptarnauti civilinį susisiekimą kariniame Šiaulių aerodrome.

Įmonė yra ribotos civilinės atsakomybės viešasis juridinis asmuo.

Įmonės pagrindinė veikla – oro uosto eksploatavimas ir oro transporto paslaugos.

Svarbiausi veiklos uždaviniai – teikti viešąsias keleivių ir krovinių vežimo oro transportu paslaugas.

Įmonėje dirba 21 darbuotojas.


Įmonės struktūra:

 

Šiandien

Penktadienis, 24 Lapkritis 2017

Orų prognozė

Šiauliai °C
   

Orų prognozė aviacijai

[source: ADDS]
METAR
EYSA 240150Z AUTO 19010KT 6000NDV BR OVC007 05/05 Q1010 R14L/29//95 R14R/29//95 =
TAF
TAF EYSA 240205Z 2403/2412 18012KT 5000 BR OVC005 TEMPO 2403/2406 3000 RA BKN003 TEMPO 2406/2412 1500 BKN003 =
SR / SS: 06:18 / 14:11 UTC (EYSA 2017-11-24)

Paieška

Lankytojai

Mes turime 91 svečius online

tic logo lt